Archival Weather

Tokyo Intl

Tokyo, Japan (RJTT)

Report from: Friday, September 22, 2023 4:00 AM JST
Current time: Sunday, February 25, 2024 12:16 AM JST

Current weather – Weather history – Daily summaries
Weather forecast

Present weatherLight rain showers
Temperature26.0°C (78.8°F)
Dew point24.0°C (75.2°F)
Winds 14 kts (7.2 m/s, 16.1 mph) Southwest (230°)
Visibility6.2 mi. (10 km)
Clouds Few clouds 1,500 ft. (457 m)
Ceiling: Broken clouds 13,000 ft. (3,962 m)
Altimeter29.74 in.Hg (1007 mB)
Relative humidity89 %
Density altitude1,881 ft. (573 m)
Remarks No significant changes expected in the next two hours
Flight conditions Visual Meteorological Conditions
Raw dataRJTT 211900Z 23014KT 9999 -SHRA FEW015 BKN130 26/24 Q1007 NOSIG
An error has occurred. This application may no longer respond until reloaded. Reload 🗙